createdAt,value
2023-02-19T00:08:38.725Z,100.00
2023-02-19T00:18:43.826Z,100.00
2023-02-19T00:28:46.989Z,100.00
2023-02-19T00:38:55.394Z,100.00
2023-02-19T00:48:58.487Z,100.00
2023-02-19T00:59:03.465Z,100.00
2023-02-19T01:09:07.929Z,100.00
2023-02-19T01:19:10.290Z,100.00
2023-02-19T01:29:12.317Z,100.00
2023-02-19T01:39:14.494Z,100.00
2023-02-19T01:49:36.365Z,100.00
2023-02-19T01:59:41.406Z,100.00
2023-02-19T02:10:05.212Z,100.00
2023-02-19T02:20:48.354Z,100.00
2023-02-19T02:31:05.306Z,100.00
2023-02-19T02:41:07.864Z,100.00
2023-02-19T02:51:29.587Z,100.00
2023-02-19T03:02:04.255Z,100.00
2023-02-19T03:12:33.316Z,100.00
2023-02-19T03:22:37.198Z,100.00
2023-02-19T03:32:52.457Z,100.00
2023-02-19T03:43:17.589Z,100.00
2023-02-19T03:53:50.610Z,100.00
2023-02-19T04:04:09.309Z,100.00
2023-02-19T04:14:24.158Z,100.00
2023-02-19T04:24:36.818Z,100.00
2023-02-19T04:34:41.506Z,100.00
2023-02-19T04:44:44.310Z,100.00
2023-02-19T04:54:46.445Z,100.00
2023-02-19T05:04:49.069Z,100.00
2023-02-19T05:14:53.623Z,100.00
2023-02-19T05:25:00.669Z,100.00
2023-02-19T05:35:06.050Z,100.00
2023-02-19T05:45:11.172Z,100.00
2023-02-19T05:55:14.050Z,100.00
2023-02-19T06:05:20.787Z,100.00
2023-02-19T06:15:22.885Z,100.00
2023-02-19T06:25:24.877Z,100.00
2023-02-19T06:35:29.210Z,100.00
2023-02-19T06:45:34.696Z,100.00
2023-02-19T06:55:40.518Z,100.00
2023-02-19T07:05:44.264Z,100.00
2023-02-19T07:15:46.459Z,100.00
2023-02-19T07:25:51.122Z,100.00
2023-02-19T07:36:00.379Z,100.00
2023-02-19T07:46:07.320Z,100.00
2023-02-19T07:56:16.767Z,100.00
2023-02-19T08:06:24.002Z,100.00
2023-02-19T08:16:42.085Z,100.00
2023-02-19T08:26:45.644Z,100.00
2023-02-19T08:36:52.997Z,100.00
2023-02-19T08:46:57.734Z,100.00
2023-02-19T08:56:59.870Z,100.00
2023-02-19T09:07:02.268Z,99.06
2023-02-19T09:17:08.568Z,99.00
2023-02-19T09:27:18.841Z,95.89
2023-02-19T09:37:25.844Z,93.83
2023-02-19T09:47:32.383Z,92.26
2023-02-19T09:57:36.705Z,90.65
2023-02-19T10:07:48.606Z,87.13
2023-02-19T10:17:53.874Z,85.09
2023-02-19T10:27:59.424Z,81.95
2023-02-19T10:38:06.944Z,80.52
2023-02-19T10:48:24.993Z,81.05
2023-02-19T10:58:29.388Z,79.40
2023-02-19T11:08:43.858Z,79.58
2023-02-19T11:18:57.012Z,78.42
2023-02-19T11:29:13.672Z,79.26
2023-02-19T11:39:15.769Z,77.84
2023-02-19T11:49:44.700Z,77.50
2023-02-19T12:00:00.111Z,77.07
2023-02-19T12:10:22.187Z,77.71
2023-02-19T12:20:52.060Z,76.42
2023-02-19T12:31:35.864Z,74.85
2023-02-19T12:41:49.754Z,74.79
2023-02-19T12:51:57.893Z,75.99
2023-02-19T13:02:26.385Z,75.84
2023-02-19T13:12:35.817Z,75.06
2023-02-19T13:23:01.997Z,73.22
2023-02-19T13:33:17.733Z,73.87
2023-02-19T13:43:27.805Z,71.95
2023-02-19T13:53:45.954Z,71.41
2023-02-19T14:03:55.132Z,69.41
2023-02-19T14:14:01.870Z,68.81
2023-02-19T14:24:04.692Z,66.12
2023-02-19T14:34:15.930Z,64.42
2023-02-19T14:44:29.750Z,61.42
2023-02-19T14:55:08.445Z,61.64
2023-02-19T15:05:27.309Z,66.57
2023-02-19T15:15:38.510Z,68.56
2023-02-19T15:25:49.592Z,64.78
2023-02-19T15:36:00.825Z,66.92
2023-02-19T15:46:20.340Z,68.34
2023-02-19T15:56:30.937Z,67.31
2023-02-19T16:07:03.089Z,67.26
2023-02-19T16:17:13.131Z,67.94
2023-02-19T16:27:44.685Z,67.88
2023-02-19T16:38:01.777Z,67.01
2023-02-19T16:48:10.673Z,66.53
2023-02-19T16:58:16.532Z,65.73
2023-02-19T17:08:42.633Z,65.28
2023-02-19T17:18:50.071Z,63.97
2023-02-19T17:28:58.309Z,62.71
2023-02-19T17:39:18.129Z,61.31
2023-02-19T17:49:34.806Z,60.63
2023-02-19T17:59:44.584Z,58.91
2023-02-19T18:09:49.276Z,58.52
2023-02-19T18:19:57.400Z,58.03
2023-02-19T18:30:07.480Z,57.73
2023-02-19T18:40:11.574Z,58.53
2023-02-19T18:50:15.378Z,59.42
2023-02-19T19:00:23.801Z,59.95
2023-02-19T19:10:36.496Z,59.58
2023-02-19T19:20:39.579Z,59.51
2023-02-19T19:30:46.211Z,60.69
2023-02-19T19:40:53.538Z,61.83
2023-02-19T19:51:06.389Z,62.50
2023-02-19T20:01:11.187Z,62.31
2023-02-19T20:11:14.285Z,61.89
2023-02-19T20:21:35.613Z,61.19
2023-02-19T20:31:40.562Z,62.65
2023-02-19T20:41:57.606Z,63.91
2023-02-19T20:52:10.979Z,64.42
2023-02-19T21:02:29.351Z,65.05
2023-02-19T21:12:31.841Z,66.02
2023-02-19T21:22:36.157Z,67.03
2023-02-19T21:32:40.991Z,67.77
2023-02-19T21:42:45.152Z,69.00
2023-02-19T21:52:55.215Z,70.50
2023-02-19T22:02:57.747Z,71.31
2023-02-19T22:13:06.290Z,72.85
2023-02-19T22:23:11.068Z,74.00
2023-02-19T22:33:19.103Z,76.10
2023-02-19T22:43:22.681Z,77.77
2023-02-19T22:53:25.838Z,79.23
2023-02-19T23:03:29.134Z,80.28
2023-02-19T23:13:34.639Z,81.11
2023-02-19T23:23:40.001Z,82.07
2023-02-19T23:33:45.743Z,83.57
2023-02-19T23:43:50.435Z,88.62
2023-02-19T23:53:52.470Z,91.73
